Time;durP1;ratioP1;P1;durP2;ratioP2;P2;SDS_P1;SDS_P2;PMS_P1;PMS_P2;Temp;Humidity;BMP_temperature;BMP_pressure;BME280_temperature;BME280_humidity;BME280_pressure;Samples;Min_cycle;Max_cycle;Signal;HPM_P1;HPM_P2
2023/02/17 00:01:22;;;;;;;28.98;15.60;;;7.50;99.90;;;;;;5096780;28;25161;-79
2023/02/17 00:03:50;;;;;;;24.40;14.68;;;7.50;99.90;;;;;;5097277;28;25057;-78
2023/02/17 00:06:20;;;;;;;29.30;15.70;;;7.40;99.90;;;;;;5079405;28;25053;-78
2023/02/17 00:08:47;;;;;;;27.35;15.23;;;7.50;99.90;;;;;;5079202;28;25121;-78
2023/02/17 00:11:15;;;;;;;23.23;13.93;;;7.50;99.90;;;;;;5097143;28;25104;-78
2023/02/17 00:13:43;;;;;;;24.23;13.32;;;7.50;99.90;;;;;;5097152;28;25147;-78
2023/02/17 00:16:15;;;;;;;26.38;14.05;;;7.50;99.90;;;;;;5097288;28;25063;-78
2023/02/17 00:18:43;;;;;;;27.48;14.05;;;7.50;99.90;;;;;;5079060;28;25095;-78
2023/02/17 00:21:16;;;;;;;24.17;14.07;;;7.50;99.90;;;;;;5096811;28;25104;-78
2023/02/17 00:23:43;;;;;;;21.95;11.90;;;7.60;99.90;;;;;;5097211;28;25084;-79
2023/02/17 00:26:11;;;;;;;22.35;11.80;;;7.60;99.90;;;;;;5079003;28;25069;-78
2023/02/17 00:28:39;;;;;;;22.15;13.10;;;7.60;99.90;;;;;;5096108;28;25073;-78
2023/02/17 00:31:15;;;;;;;22.83;12.63;;;7.60;99.90;;;;;;5097132;28;25117;-78
2023/02/17 00:33:42;;;;;;;20.03;12.43;;;7.60;99.90;;;;;;5096830;28;25116;-79
2023/02/17 00:36:17;;;;;;;19.02;12.30;;;7.60;99.90;;;;;;5075427;28;25132;-78
2023/02/17 00:38:45;;;;;;;18.77;12.07;;;7.70;99.90;;;;;;5076614;28;25113;-78
2023/02/17 00:41:13;;;;;;;23.08;13.18;;;7.70;99.90;;;;;;5076484;28;25121;-78
2023/02/17 00:43:41;;;;;;;34.42;13.20;;;7.70;99.90;;;;;;5075643;28;25058;-79
2023/02/17 00:46:09;;;;;;;26.05;13.13;;;7.80;99.90;;;;;;5075504;28;25054;-78
2023/02/17 00:48:37;;;;;;;23.80;13.32;;;7.80;99.90;;;;;;5074648;28;25115;-78
2023/02/17 00:51:04;;;;;;;22.40;12.88;;;7.90;99.90;;;;;;5076993;28;25116;-78
2023/02/17 00:53:31;;;;;;;23.55;14.00;;;7.90;99.90;;;;;;5076640;28;25048;-78
2023/02/17 00:55:58;;;;;;;23.50;13.65;;;7.90;99.90;;;;;;5076827;28;25093;-79
2023/02/17 00:58:25;;;;;;;23.67;13.98;;;8.00;99.90;;;;;;5076855;28;25070;-79
2023/02/17 01:00:56;;;;;;;24.52;14.02;;;8.00;99.90;;;;;;5075103;28;25063;-78
2023/02/17 01:03:25;;;;;;;23.88;13.77;;;8.10;99.90;;;;;;5076257;28;25067;-78
2023/02/17 01:05:53;;;;;;;18.00;11.77;;;8.20;99.90;;;;;;5076560;28;24931;-78
2023/02/17 01:08:22;;;;;;;19.70;11.88;;;8.20;99.90;;;;;;5076763;28;25106;-78
2023/02/17 01:10:50;;;;;;;20.45;11.45;;;8.20;99.90;;;;;;5075239;28;25054;-78
2023/02/17 01:13:18;;;;;;;19.10;12.48;;;8.30;99.90;;;;;;5076436;28;25130;-78
2023/02/17 01:15:51;;;;;;;20.33;12.55;;;8.30;99.90;;;;;;5076167;28;25067;-78
2023/02/17 01:18:19;;;;;;;22.73;13.15;;;8.30;99.90;;;;;;5076139;28;25072;-78
2023/02/17 01:20:46;;;;;;;21.63;12.95;;;8.30;99.90;;;;;;5075118;28;25058;-78
2023/02/17 01:23:14;;;;;;;21.15;12.48;;;8.40;99.90;;;;;;5076056;28;25057;-78
2023/02/17 01:25:44;;;;;;;19.52;11.80;;;8.40;99.90;;;;;;5075003;28;25072;-78
2023/02/17 01:28:19;;;;;;;20.25;12.48;;;8.40;99.90;;;;;;5074929;28;25062;-78
2023/02/17 01:30:47;;;;;;;19.27;11.30;;;8.50;99.90;;;;;;5076197;28;25059;-78
2023/02/17 01:33:14;;;;;;;22.15;12.90;;;8.50;99.90;;;;;;5075944;28;25069;-79
2023/02/17 01:35:41;;;;;;;23.02;13.25;;;8.50;99.90;;;;;;5087247;28;25067;-78
2023/02/17 01:38:09;;;;;;;17.58;10.50;;;8.50;99.90;;;;;;5078296;28;25106;-78
2023/02/17 01:40:36;;;;;;;19.52;12.52;;;8.50;99.90;;;;;;5082569;28;25065;-78
2023/02/17 01:43:05;;;;;;;21.80;12.20;;;8.50;99.90;;;;;;5098621;28;25056;-78
2023/02/17 01:45:42;;;;;;;18.48;11.40;;;8.50;99.90;;;;;;5098702;28;25087;-78
2023/02/17 01:48:18;;;;;;;18.45;10.65;;;8.50;99.90;;;;;;5099911;28;25056;-79
2023/02/17 01:50:49;;;;;;;;;;;8.50;99.90;;;;;;5100441;28;25053;-78
2023/02/17 01:53:24;;;;;;;19.83;12.23;;;8.50;99.90;;;;;;5081861;28;25057;-78
2023/02/17 01:55:53;;;;;;;21.92;12.38;;;8.50;99.90;;;;;;5081884;28;25067;-78
2023/02/17 01:58:23;;;;;;;18.67;12.00;;;8.60;99.90;;;;;;5099732;28;25109;-78
2023/02/17 02:00:51;;;;;;;18.60;11.38;;;8.50;99.90;;;;;;5081836;28;25066;-78
2023/02/17 02:03:19;;;;;;;18.58;11.45;;;8.50;99.90;;;;;;5099613;28;25074;-78
2023/02/17 02:05:46;;;;;;;18.48;11.43;;;8.60;99.90;;;;;;5099607;28;25353;-78
2023/02/17 02:08:14;;;;;;;20.13;12.40;;;8.60;99.90;;;;;;5081528;28;25100;-78
2023/02/17 02:10:41;;;;;;;20.00;11.15;;;8.60;99.90;;;;;;5081749;28;25064;-78
2023/02/17 02:13:09;;;;;;;17.58;11.70;;;8.60;99.90;;;;;;5081461;28;25106;-78
2023/02/17 02:15:59;;;;;;;19.98;10.70;;;8.60;99.90;;;;;;5099412;28;25147;-78
2023/02/17 02:18:42;;;;;;;16.20;10.98;;;8.60;99.90;;;;;;5099281;28;25077;-78
2023/02/17 02:21:42;;;;;;;20.13;11.20;;;8.70;99.90;;;;;;5099490;28;25059;-78
2023/02/17 02:24:25;;;;;;;19.73;11.48;;;8.60;99.90;;;;;;5080535;28;25075;-78
2023/02/17 02:27:17;;;;;;;19.05;10.95;;;8.60;99.90;;;;;;5099553;28;25090;-79
2023/02/17 02:30:04;;;;;;;19.58;10.52;;;8.60;99.90;;;;;;5099726;28;25088;-79
2023/02/17 02:32:57;;;;;;;17.85;11.15;;;8.60;99.90;;;;;;5099121;28;25102;-78
2023/02/17 02:35:57;;;;;;;20.75;11.95;;;8.70;99.90;;;;;;5078011;28;25100;-78
2023/02/17 02:38:45;;;;;;;16.65;10.57;;;8.70;99.90;;;;;;5078722;28;25068;-79
2023/02/17 02:41:24;;;;;;;21.63;12.18;;;8.70;99.90;;;;;;5077586;28;25057;-79
2023/02/17 02:43:52;;;;;;;20.52;12.15;;;8.70;99.90;;;;;;5077574;28;25123;-78
2023/02/17 02:46:19;;;;;;;15.40;10.15;;;8.70;99.90;;;;;;5077645;28;25128;-78
2023/02/17 02:48:47;;;;;;;19.17;10.98;;;8.70;99.90;;;;;;5077600;28;25075;-79
2023/02/17 02:51:33;;;;;;;19.33;11.35;;;8.80;99.90;;;;;;5077430;28;25137;-78
2023/02/17 02:54:06;;;;;;;19.00;10.57;;;8.80;99.90;;;;;;5078749;28;25066;-78
2023/02/17 02:56:58;;;;;;;20.10;11.73;;;8.80;99.90;;;;;;5077456;28;25074;-79
2023/02/17 03:00:00;;;;;;;19.83;12.65;;;8.80;99.90;;;;;;5078635;28;25068;-79
2023/02/17 03:02:57;;;;;;;18.98;12.40;;;8.80;99.90;;;;;;5078756;28;25118;-79
2023/02/17 03:05:38;;;;;;;19.90;11.70;;;8.80;99.90;;;;;;5061108;28;25082;-79
2023/02/17 03:08:19;;;;;;;16.73;11.15;;;8.80;99.90;;;;;;5078174;28;25083;-79
2023/02/17 03:10:50;;;;;;;17.92;11.73;;;8.80;99.90;;;;;;5078511;28;25081;-79
2023/02/17 03:13:18;;;;;;;19.27;12.07;;;8.80;99.90;;;;;;5078053;28;25062;-79
2023/02/17 03:15:47;;;;;;;19.77;10.25;;;8.80;99.90;;;;;;5078520;28;25052;-79
2023/02/17 03:18:14;;;;;;;21.17;11.63;;;8.90;99.90;;;;;;5076880;28;25114;-79
2023/02/17 03:20:52;;;;;;;20.75;11.50;;;8.90;99.90;;;;;;5076809;28;25072;-79
2023/02/17 03:23:20;;;;;;;19.15;11.52;;;8.90;99.90;;;;;;5077900;28;25056;-79
2023/02/17 03:25:48;;;;;;;18.58;11.98;;;8.80;99.90;;;;;;5078010;28;25048;-79
2023/02/17 03:28:15;;;;;;;19.50;12.23;;;8.80;99.90;;;;;;5078056;28;25127;-79
2023/02/17 03:30:42;;;;;;;18.70;12.48;;;8.80;99.90;;;;;;5076695;28;25135;-79
2023/02/17 03:33:10;;;;;;;20.10;11.98;;;8.90;99.90;;;;;;5076571;28;25087;-78
2023/02/17 03:35:37;;;;;;;19.05;12.30;;;8.90;99.90;;;;;;5087073;28;25110;-78
2023/02/17 03:38:05;;;;;;;27.02;13.05;;;8.90;99.90;;;;;;5079865;28;25114;-78
2023/02/17 03:40:32;;;;;;;20.92;13.68;;;8.90;99.90;;;;;;5079843;28;25071;-79
2023/02/17 03:43:00;;;;;;;20.92;12.82;;;8.90;99.90;;;;;;5097932;28;25064;-79
2023/02/17 03:45:27;;;;;;;20.27;11.23;;;8.90;99.90;;;;;;5079676;28;25054;-79
2023/02/17 03:47:55;;;;;;;17.67;10.85;;;8.90;99.90;;;;;;5097910;28;25059;-79
2023/02/17 03:50:22;;;;;;;19.80;11.10;;;8.90;99.90;;;;;;5079724;28;25082;-79
2023/02/17 03:52:49;;;;;;;20.20;10.95;;;8.90;99.90;;;;;;5097823;28;25059;-79
2023/02/17 03:55:18;;;;;;;15.05;9.75;;;8.90;99.90;;;;;;5097818;28;25055;-79
2023/02/17 03:57:46;;;;;;;17.42;11.18;;;8.90;99.90;;;;;;5097645;28;25065;-79
2023/02/17 04:00:13;;;;;;;15.25;9.52;;;8.90;99.90;;;;;;5079595;28;25063;-79
2023/02/17 04:02:40;;;;;;;13.63;8.90;;;8.90;99.90;;;;;;5097345;28;25115;-79
2023/02/17 04:05:07;;;;;;;14.32;9.85;;;9.00;99.90;;;;;;5079394;28;25143;-79
2023/02/17 04:07:35;;;;;;;15.00;10.20;;;9.00;99.90;;;;;;5097242;28;25071;-79
2023/02/17 04:10:03;;;;;;;15.70;10.63;;;9.00;99.90;;;;;;5097658;28;25070;-78
2023/02/17 04:12:31;;;;;;;14.63;9.73;;;9.00;99.90;;;;;;5097208;28;25070;-78
2023/02/17 04:14:58;;;;;;;13.15;8.90;;;9.00;99.90;;;;;;5097472;28;25100;-78
2023/02/17 04:17:25;;;;;;;13.18;9.35;;;9.00;99.90;;;;;;5097129;28;25066;-79
2023/02/17 04:19:52;;;;;;;12.90;8.70;;;9.00;99.90;;;;;;5079378;28;25051;-79
2023/02/17 04:22:20;;;;;;;14.80;9.20;;;9.00;99.90;;;;;;5078929;28;25046;-79
2023/02/17 04:24:47;;;;;;;18.23;9.77;;;9.00;99.90;;;;;;5078978;28;25105;-78
2023/02/17 04:27:14;;;;;;;13.32;8.52;;;9.00;99.90;;;;;;5078981;28;25131;-79
2023/02/17 04:29:42;;;;;;;13.35;8.80;;;9.10;99.90;;;;;;5079069;28;25124;-78
2023/02/17 04:32:09;;;;;;;12.20;7.80;;;9.10;99.90;;;;;;5078837;28;25123;-79
2023/02/17 04:34:37;;;;;;;15.23;8.60;;;9.00;99.90;;;;;;5078698;28;25112;-79
2023/02/17 04:37:05;;;;;;;14.80;9.43;;;9.10;99.90;;;;;;5097064;28;25063;-78
2023/02/17 04:39:33;;;;;;;13.57;9.10;;;9.00;99.90;;;;;;5096731;28;25056;-79
2023/02/17 04:42:00;;;;;;;9.82;7.32;;;9.10;99.90;;;;;;5078592;28;25077;-79
2023/02/17 04:44:27;;;;;;;14.95;10.10;;;9.10;99.90;;;;;;5096923;28;25065;-76
2023/02/17 04:46:54;;;;;;;13.95;9.15;;;9.10;99.90;;;;;;5096880;28;25108;-78
2023/02/17 04:49:21;;;;;;;13.65;9.30;;;9.10;99.90;;;;;;5096622;28;25071;-79
2023/02/17 04:51:48;;;;;;;14.27;9.52;;;9.20;99.90;;;;;;5096876;28;25052;-78
2023/02/17 04:54:15;;;;;;;12.25;7.70;;;9.20;99.90;;;;;;5097119;28;25076;-78
2023/02/17 04:56:43;;;;;;;16.15;9.50;;;9.20;99.90;;;;;;5078584;28;25115;-79
2023/02/17 04:59:10;;;;;;;14.95;9.75;;;9.20;99.90;;;;;;5078572;28;25077;-79
2023/02/17 05:01:37;;;;;;;15.00;9.38;;;9.20;99.90;;;;;;5096770;28;25058;-78
2023/02/17 05:04:05;;;;;;;16.15;8.45;;;9.20;99.90;;;;;;5096571;28;25070;-79
2023/02/17 05:06:32;;;;;;;19.05;12.40;;;9.20;99.90;;;;;;5078520;28;25100;-78
2023/02/17 05:09:00;;;;;;;18.23;11.35;;;9.30;99.90;;;;;;5096381;28;25072;-79
2023/02/17 05:11:27;;;;;;;16.58;11.45;;;9.30;99.90;;;;;;5078411;28;25064;-78
2023/02/17 05:13:55;;;;;;;21.27;13.30;;;9.30;99.90;;;;;;5080155;28;25053;-78
2023/02/17 05:16:22;;;;;;;20.77;12.80;;;9.30;99.90;;;;;;5100794;28;25063;-78
2023/02/17 05:18:49;;;;;;;19.35;12.27;;;9.30;99.90;;;;;;5082533;28;25057;-78
2023/02/17 05:21:16;;;;;;;17.65;12.00;;;9.30;99.90;;;;;;5100585;28;25054;-78
2023/02/17 05:23:47;;;;;;;21.58;12.70;;;9.30;99.90;;;;;;5082485;28;25081;-78
2023/02/17 05:26:14;;;;;;;21.88;14.25;;;9.40;99.90;;;;;;5082380;28;25077;-78
2023/02/17 05:28:42;;;;;;;21.00;13.73;;;9.40;99.90;;;;;;5082347;28;25106;-78
2023/02/17 05:31:09;;;;;;;20.08;12.68;;;9.40;99.90;;;;;;5100236;28;25068;-78
2023/02/17 05:33:37;;;;;;;23.77;14.27;;;9.40;99.90;;;;;;5100491;28;25100;-78
2023/02/17 05:36:08;;;;;;;19.63;13.43;;;9.40;99.90;;;;;;5078775;28;25078;-78
2023/02/17 05:38:36;;;;;;;19.15;10.77;;;9.40;99.90;;;;;;5078772;28;25068;-78
2023/02/17 05:41:04;;;;;;;21.02;12.00;;;9.50;99.90;;;;;;5080014;28;25085;-78
2023/02/17 05:43:32;;;;;;;16.80;10.77;;;9.50;99.90;;;;;;5079789;28;25124;-78
2023/02/17 05:46:03;;;;;;;17.05;10.48;;;9.50;99.90;;;;;;5078816;28;25069;-78
2023/02/17 05:48:31;;;;;;;20.65;11.00;;;9.50;99.90;;;;;;5079663;28;25084;-78
2023/02/17 05:50:59;;;;;;;19.52;12.38;;;9.50;99.90;;;;;;5079924;28;25123;-78
2023/02/17 05:53:26;;;;;;;18.73;11.05;;;9.60;99.90;;;;;;5079584;28;25095;-78
2023/02/17 05:55:53;;;;;;;14.55;9.88;;;9.60;99.90;;;;;;5078459;28;25121;-78
2023/02/17 05:58:21;;;;;;;18.05;11.18;;;9.60;99.90;;;;;;5080011;28;25061;-78
2023/02/17 06:00:49;;;;;;;17.70;11.13;;;9.70;99.90;;;;;;5079383;28;25071;-78
2023/02/17 06:03:17;;;;;;;15.50;10.45;;;9.70;99.90;;;;;;5079649;28;25096;-78
2023/02/17 06:05:45;;;;;;;17.75;11.52;;;9.70;99.90;;;;;;5079915;28;25091;-78
2023/02/17 06:08:13;;;;;;;17.95;11.38;;;9.70;99.90;;;;;;5080721;28;25056;-78
2023/02/17 06:10:41;;;;;;;19.10;12.18;;;9.70;99.90;;;;;;5079978;28;25093;-78
2023/02/17 06:13:08;;;;;;;20.90;11.35;;;9.70;99.90;;;;;;5079229;28;25121;-78
2023/02/17 06:15:36;;;;;;;17.35;11.20;;;9.70;99.90;;;;;;5079245;28;25148;-78
2023/02/17 06:18:03;;;;;;;19.80;11.05;;;9.70;99.90;;;;;;5078038;28;25100;-78
2023/02/17 06:20:31;;;;;;;20.48;12.23;;;9.70;99.90;;;;;;5078196;28;25096;-78
2023/02/17 06:22:58;;;;;;;18.17;11.48;;;9.70;99.90;;;;;;5078965;28;25057;-78
2023/02/17 06:25:27;;;;;;;18.98;11.52;;;9.70;99.90;;;;;;5077148;28;25104;-78
2023/02/17 06:27:54;;;;;;;19.00;12.38;;;9.70;99.90;;;;;;5077851;28;25113;-78
2023/02/17 06:30:22;;;;;;;16.65;10.50;;;9.70;99.90;;;;;;5080164;28;25081;-78
2023/02/17 06:32:49;;;;;;;15.07;9.45;;;9.70;99.90;;;;;;5077105;28;25116;-78
2023/02/17 06:35:17;;;;;;;19.77;10.35;;;9.80;99.90;;;;;;5077616;28;25114;-78
2023/02/17 06:37:45;;;;;;;16.00;10.80;;;9.80;99.90;;;;;;5079044;28;25098;-78
2023/02/17 06:40:15;;;;;;;18.42;10.73;;;9.80;99.90;;;;;;5078722;28;25073;-78
2023/02/17 06:42:42;;;;;;;19.25;11.65;;;9.80;99.90;;;;;;5078903;28;25100;-78
2023/02/17 06:45:09;;;;;;;14.68;9.48;;;9.80;99.90;;;;;;5078938;28;25105;-78
2023/02/17 06:47:37;;;;;;;15.52;10.10;;;9.80;99.90;;;;;;5078641;28;25070;-78
2023/02/17 06:50:05;;;;;;;14.98;9.75;;;9.80;99.90;;;;;;5077628;28;25088;-76
2023/02/17 06:52:33;;;;;;;15.27;10.60;;;9.80;99.90;;;;;;5078548;28;25108;-77
2023/02/17 06:55:00;;;;;;;12.68;8.48;;;9.80;99.90;;;;;;5077405;28;25075;-77
2023/02/17 06:57:27;;;;;;;12.10;7.57;;;9.90;99.90;;;;;;5077347;28;25123;-77
2023/02/17 06:59:55;;;;;;;13.02;8.10;;;9.90;99.90;;;;;;5077523;28;25114;-77
2023/02/17 07:02:22;;;;;;;15.05;9.02;;;9.90;99.90;;;;;;5078232;28;25063;-76
2023/02/17 07:04:49;;;;;;;13.15;8.80;;;9.90;99.90;;;;;;5078558;28;25088;-77
2023/02/17 07:07:17;;;;;;;11.60;7.10;;;10.00;99.90;;;;;;5078458;28;25062;-78
2023/02/17 07:09:45;;;;;;;12.70;7.88;;;10.00;99.90;;;;;;5077037;28;25079;-73
2023/02/17 07:12:12;;;;;;;10.05;6.82;;;10.10;99.90;;;;;;5078123;28;25107;-83
2023/02/17 07:14:39;;;;;;;12.30;8.38;;;10.10;99.90;;;;;;5078371;28;25070;-81
2023/02/17 07:17:06;;;;;;;15.45;9.20;;;10.10;99.90;;;;;;5076954;28;25076;-82
2023/02/17 07:19:33;;;;;;;9.63;7.20;;;10.10;99.90;;;;;;5076919;28;25074;-77
2023/02/17 07:22:01;;;;;;;15.25;8.52;;;10.10;99.90;;;;;;5078168;28;25061;-81
2023/02/17 07:24:29;;;;;;;12.50;6.88;;;10.10;99.90;;;;;;5078277;28;25071;-81
2023/02/17 07:26:56;;;;;;;13.20;7.90;;;10.10;99.90;;;;;;5076896;28;25085;-89
2023/02/17 07:29:24;;;;;;;12.85;8.30;;;10.10;99.90;;;;;;5077134;28;25055;-79
2023/02/17 07:31:51;;;;;;;11.63;7.47;;;10.10;99.90;;;;;;5078059;28;25071;-85
2023/02/17 07:34:18;;;;;;;14.48;9.00;;;10.00;99.90;;;;;;5077841;28;25047;-80
2023/02/17 07:36:46;;;;;;;12.07;8.20;;;10.10;99.90;;;;;;5095679;28;25070;-83
2023/02/17 07:39:13;;;;;;;12.05;7.78;;;10.00;99.90;;;;;;5080105;28;25153;-83
2023/02/17 07:41:40;;;;;;;10.90;7.13;;;10.00;99.90;;;;;;5098125;28;25093;-86
2023/02/17 07:44:08;;;;;;;11.20;7.93;;;10.10;99.90;;;;;;5097960;28;25060;-84
2023/02/17 07:46:38;;;;;;;15.27;9.00;;;10.10;99.90;;;;;;5079735;28;25073;-85
2023/02/17 07:49:06;;;;;;;12.65;7.50;;;10.10;99.90;;;;;;5097636;28;25084;-82
2023/02/17 07:51:33;;;;;;;16.00;7.75;;;10.10;99.90;;;;;;5079615;28;25097;-81
2023/02/17 07:54:01;;;;;;;12.25;8.38;;;10.10;99.90;;;;;;5097989;28;25063;-83
2023/02/17 07:56:28;;;;;;;12.57;8.57;;;10.20;99.90;;;;;;5078829;28;25073;-75
2023/02/17 07:58:56;;;;;;;13.00;8.77;;;10.20;99.90;;;;;;5079505;28;25116;-77
2023/02/17 08:01:24;;;;;;;15.18;8.25;;;10.20;99.90;;;;;;5097564;28;25073;-75
2023/02/17 08:03:52;;;;;;;11.27;7.68;;;10.20;99.90;;;;;;5079540;28;25095;-76
2023/02/17 08:06:21;;;;;;;14.55;9.65;;;10.20;99.90;;;;;;5097577;28;25102;-76
2023/02/17 08:14:23;;;;;;;24.23;14.68;;;10.20;99.90;;;;;;5097984;28;25057;-77
2023/02/17 08:16:50;;;;;;;14.88;8.80;;;10.20;99.90;;;;;;5097108;28;25106;-75
2023/02/17 08:19:18;;;;;;;11.40;6.65;;;10.20;99.90;;;;;;5079127;28;25106;-75
2023/02/17 08:21:46;;;;;;;17.38;9.70;;;10.20;99.90;;;;;;5096900;28;25074;-78
2023/02/17 08:24:15;;;;;;;62.85;30.35;;;10.20;99.90;;;;;;5079026;28;25062;-74
2023/02/17 08:26:42;;;;;;;94.55;57.08;;;10.20;99.90;;;;;;5096949;28;25069;-75
2023/02/17 08:29:10;;;;;;;71.95;42.53;;;10.20;99.90;;;;;;5097464;28;25073;-75
2023/02/17 08:31:38;;;;;;;14.80;9.52;;;10.10;99.90;;;;;;5096844;28;25058;-75
2023/02/17 08:34:08;;;;;;;13.02;7.93;;;10.10;99.90;;;;;;5078834;28;25055;-75
2023/02/17 08:36:36;;;;;;;15.50;9.20;;;10.10;99.90;;;;;;5096602;28;25073;-77
2023/02/17 08:39:10;;;;;;;246.98;182.88;;;10.00;99.90;;;;;;5096942;28;25082;-76
2023/02/17 08:41:38;;;;;;;15.60;9.02;;;10.00;99.90;;;;;;5096923;28;25057;-78
2023/02/17 08:44:16;;;;;;;85.78;39.97;;;9.90;99.90;;;;;;5096712;28;25120;-76
2023/02/17 08:46:46;;;;;;;14.75;9.32;;;9.90;99.90;;;;;;5078686;28;25067;-75
2023/02/17 08:49:15;;;;;;;10.57;6.78;;;9.90;99.90;;;;;;5096495;28;25067;-75
2023/02/17 08:51:43;;;;;;;72.18;45.47;;;9.90;99.90;;;;;;5097105;28;25076;-75
2023/02/17 08:54:11;;;;;;;15.88;9.82;;;9.90;99.90;;;;;;5078897;28;25095;-75
2023/02/17 08:56:40;;;;;;;12.60;7.97;;;9.90;99.90;;;;;;5096625;28;25047;-76
2023/02/17 08:59:09;;;;;;;112.35;64.50;;;9.90;99.90;;;;;;5078746;28;25108;-75
2023/02/17 09:01:38;;;;;;;11.75;6.68;;;9.90;99.90;;;;;;5096343;28;25101;-76
2023/02/17 09:04:07;;;;;;;14.48;8.27;;;9.90;99.90;;;;;;5096485;28;25109;-74
2023/02/17 09:06:43;;;;;;;12.15;7.38;;;9.90;99.90;;;;;;5096964;28;25075;-75
2023/02/17 09:09:12;;;;;;;9.63;6.50;;;9.90;99.90;;;;;;5096598;28;25089;-74
2023/02/17 09:11:39;;;;;;;12.25;8.48;;;9.90;99.90;;;;;;5078491;28;25132;-76
2023/02/17 09:14:07;;;;;;;12.68;8.10;;;9.90;99.90;;;;;;5096341;28;25067;-75
2023/02/17 09:16:36;;;;;;;11.85;7.75;;;9.90;99.90;;;;;;5096321;28;25071;-75
2023/02/17 09:19:03;;;;;;;662.92;457.25;;;9.90;99.90;;;;;;5097021;28;25155;-75
2023/02/17 09:21:31;;;;;;;12.85;8.27;;;10.00;99.90;;;;;;5078342;28;24923;-75
2023/02/17 09:23:59;;;;;;;11.43;7.63;;;10.00;99.90;;;;;;5096296;28;25055;-77
2023/02/17 09:26:26;;;;;;;16.55;8.70;;;10.10;99.90;;;;;;5096249;28;25061;-78
2023/02/17 09:28:53;;;;;;;16.88;10.55;;;10.10;99.90;;;;;;5096657;28;25088;-78
2023/02/17 09:31:23;;;;;;;17.50;8.93;;;10.10;99.90;;;;;;5078259;28;25090;-75
2023/02/17 09:33:50;;;;;;;70.22;27.88;;;10.20;99.90;;;;;;5096226;28;25061;-75
2023/02/17 09:36:22;;;;;;;14.40;7.65;;;10.20;99.90;;;;;;5074648;28;25073;-75
2023/02/17 09:38:51;;;;;;;15.98;9.43;;;10.30;99.90;;;;;;5076760;28;25072;-75
2023/02/17 09:41:40;;;;;;;14.60;9.07;;;10.30;99.90;;;;;;5075836;28;25051;-76
2023/02/17 09:44:17;;;;;;;86.72;42.50;;;10.40;99.90;;;;;;5076087;28;25110;-75
2023/02/17 09:47:00;;;;;;;42.53;17.80;;;10.40;99.90;;;;;;5076118;28;25061;-79
2023/02/17 09:49:43;;;;;;;92.82;65.22;;;10.50;99.90;;;;;;5074891;28;25061;-78
2023/02/17 09:52:22;;;;;;;152.88;72.57;;;10.50;99.90;;;;;;5074677;28;25080;-76
2023/02/17 09:55:03;;;;;;;41.03;21.95;;;10.50;99.90;;;;;;5074762;28;25101;-76
2023/02/17 09:57:49;;;;;;;18.73;8.07;;;10.50;99.90;;;;;;5074661;28;25107;-75
2023/02/17 10:00:23;;;;;;;10.70;7.53;;;10.60;99.90;;;;;;5078365;28;25114;-76
2023/02/17 10:03:09;;;;;;;11.68;7.07;;;10.60;99.90;;;;;;5079614;28;25130;-75
2023/02/17 10:05:47;;;;;;;13.97;8.13;;;10.60;99.90;;;;;;5080020;28;25113;-78
2023/02/17 10:08:24;;;;;;;12.32;7.95;;;10.60;99.90;;;;;;5079604;28;25174;-77
2023/02/17 10:11:03;;;;;;;14.80;7.47;;;10.70;99.90;;;;;;5078231;28;25135;-77
2023/02/17 10:13:33;;;;;;;11.85;7.72;;;10.70;99.90;;;;;;5079289;28;25110;-78
2023/02/17 10:16:09;;;;;;;12.25;7.65;;;10.70;99.90;;;;;;5078101;28;25058;-77
2023/02/17 10:18:48;;;;;;;12.23;7.15;;;10.70;99.90;;;;;;5078299;28;25061;-78
2023/02/17 10:21:25;;;;;;;12.70;7.00;;;10.70;99.90;;;;;;5079058;28;25111;-78
2023/02/17 10:23:53;;;;;;;115.95;74.35;;;10.80;99.90;;;;;;5079071;28;25102;-78
2023/02/17 10:26:42;;;;;;;86.55;48.70;;;10.80;99.90;;;;;;5079020;28;25076;-78
2023/02/17 10:29:49;;;;;;;64.43;31.85;;;10.80;99.90;;;;;;5079384;28;25075;-82
2023/02/17 10:32:21;;;;;;;11.13;7.55;;;10.80;99.90;;;;;;5077850;28;24991;-77
2023/02/17 10:35:11;;;;;;;12.77;7.25;;;10.80;99.90;;;;;;5079575;28;25093;-78
2023/02/17 10:37:56;;;;;;;9.30;6.97;;;10.80;99.90;;;;;;5081106;28;25114;-78
2023/02/17 10:40:27;;;;;;;9.70;6.68;;;10.90;99.90;;;;;;5081220;28;25110;-78
2023/02/17 10:43:02;;;;;;;10.65;7.10;;;11.00;99.90;;;;;;5098861;28;25064;-79
2023/02/17 10:45:34;;;;;;;9.73;6.68;;;11.10;99.90;;;;;;5098967;28;25067;-79
2023/02/17 10:48:22;;;;;;;39.50;16.27;;;11.10;99.90;;;;;;5080926;28;25059;-77
2023/02/17 10:50:51;;;;;;;9.10;6.10;;;11.10;99.90;;;;;;5098834;28;25074;-78
2023/02/17 10:53:27;;;;;;;8.43;6.18;;;11.20;99.90;;;;;;5080857;28;25071;-79
2023/02/17 10:56:22;;;;;;;11.75;7.32;;;11.20;99.90;;;;;;5098722;28;25083;-77
2023/02/17 10:59:27;;;;;;;11.38;7.18;;;11.30;99.90;;;;;;5080574;28;25084;-78
2023/02/17 11:02:20;;;;;;;9.07;6.43;;;11.30;99.90;;;;;;5094250;28;25109;-76
2023/02/17 11:04:51;;;;;;;11.18;7.00;;;11.40;99.90;;;;;;5080860;28;25049;-77
2023/02/17 11:07:38;;;;;;;12.30;8.27;;;11.40;99.90;;;;;;5098751;28;25110;-79
2023/02/17 11:10:32;;;;;;;10.57;7.32;;;11.50;99.90;;;;;;5096953;28;25082;-78
2023/02/17 11:13:01;;;;;;;9.20;6.10;;;11.60;99.90;;;;;;5079890;28;25144;-79
2023/02/17 11:15:36;;;;;;;11.70;7.28;;;11.60;99.90;;;;;;5098785;28;25084;-79
2023/02/17 11:18:20;;;;;;;12.00;7.40;;;11.70;99.90;;;;;;5098222;28;25066;-79
2023/02/17 11:20:48;;;;;;;12.27;7.82;;;11.80;99.90;;;;;;5080193;28;25062;-81
2023/02/17 11:23:16;;;;;;;9.50;6.57;;;11.90;99.90;;;;;;5080327;28;25102;-80
2023/02/17 11:25:55;;;;;;;16.60;7.57;;;12.00;99.90;;;;;;5083996;28;25061;-79
2023/02/17 11:28:24;;;;;;;10.95;6.93;;;12.10;99.90;;;;;;5100943;28;25122;-77
2023/02/17 11:30:58;;;;;;;13.52;7.60;;;12.10;99.90;;;;;;5100339;28;25147;-78
2023/02/17 11:33:34;;;;;;;11.43;7.68;;;12.20;99.90;;;;;;5098754;28;25072;-78
2023/02/17 11:36:03;;;;;;;11.48;7.57;;;12.20;99.90;;;;;;5098726;28;25061;-79
2023/02/17 11:38:45;;;;;;;8.60;6.03;;;12.30;99.90;;;;;;5080010;28;25089;-78
2023/02/17 11:41:13;;;;;;;10.32;6.70;;;12.40;99.90;;;;;;5097803;28;25052;-78
2023/02/17 11:54:07;;;;;;;12.88;7.85;;;12.80;99.90;;;;;;5097879;28;25080;-80
2023/02/17 11:56:39;;;;;;;14.05;7.60;;;12.80;99.90;;;;;;5098077;28;25072;-78
2023/02/17 11:59:19;;;;;;;10.55;7.90;;;12.80;99.90;;;;;;5079535;28;25079;-78
2023/02/17 12:02:08;;;;;;;9.63;6.82;;;12.90;99.90;;;;;;5079301;28;25078;-78
2023/02/17 12:05:14;;;;;;;11.45;7.35;;;12.90;99.90;;;;;;5097646;28;25086;-78
2023/02/17 12:08:01;;;;;;;11.23;7.70;;;12.90;99.90;;;;;;5079367;28;25137;-78
2023/02/17 12:10:47;;;;;;;10.40;7.68;;;13.00;99.90;;;;;;5097293;28;25059;-78
2023/02/17 12:13:24;;;;;;;13.03;7.50;;;13.00;99.90;;;;;;5079231;28;25072;-79
2023/02/17 12:16:10;;;;;;;15.00;9.23;;;12.90;99.90;;;;;;5096192;28;20433;-78
2023/02/17 12:19:02;;;;;;;10.70;8.05;;;13.00;99.90;;;;;;5097469;28;25082;-76
2023/02/17 12:21:29;;;;;;;17.75;8.27;;;13.00;99.90;;;;;;5079109;28;25051;-86
2023/02/17 12:24:11;;;;;;;11.15;8.18;;;13.00;99.90;;;;;;5079016;28;25086;-74
2023/02/17 12:26:49;;;;;;;13.65;9.25;;;12.90;99.90;;;;;;5097246;28;25101;-79
2023/02/17 12:29:57;;;;;;;15.98;8.75;;;12.90;99.90;;;;;;5097240;28;25129;-79
2023/02/17 12:32:55;;;;;;;11.10;8.80;;;12.80;99.90;;;;;;5097132;28;25108;-80
2023/02/17 12:35:45;;;;;;;11.70;8.88;;;12.80;99.90;;;;;;5096984;28;25088;-77
2023/02/17 12:38:17;;;;;;;12.95;9.18;;;12.90;99.90;;;;;;5079361;28;25063;-78
2023/02/17 12:41:04;;;;;;;14.18;8.88;;;13.00;99.90;;;;;;5078848;28;25069;-76
2023/02/17 12:43:53;;;;;;;10.43;7.53;;;13.00;99.90;;;;;;5096676;28;25143;-76
2023/02/17 12:46:28;;;;;;;16.48;8.75;;;13.00;99.90;;;;;;5097185;28;25072;-76
2023/02/17 12:49:04;;;;;;;15.48;8.02;;;12.90;99.90;;;;;;5096674;28;25081;-77
2023/02/17 12:51:52;;;;;;;13.82;9.25;;;12.80;99.90;;;;;;5096905;28;25056;-77
2023/02/17 12:54:45;;;;;;;9.73;7.95;;;12.80;99.90;;;;;;5078721;28;25051;-78
2023/02/17 12:57:19;;;;;;;12.57;9.18;;;12.70;99.90;;;;;;5096553;28;25064;-78
2023/02/17 12:59:50;;;;;;;10.57;7.88;;;12.60;99.90;;;;;;5096526;28;25067;-78
2023/02/17 13:02:21;;;;;;;10.88;8.15;;;12.60;99.90;;;;;;5078441;28;25063;-78
2023/02/17 13:04:55;;;;;;;12.82;8.88;;;12.50;99.90;;;;;;5096649;28;25142;-76
2023/02/17 13:07:44;;;;;;;11.25;8.27;;;12.40;99.90;;;;;;5078475;28;25147;-76
2023/02/17 13:10:31;;;;;;;12.15;8.23;;;12.40;99.90;;;;;;5096458;28;25104;-78
2023/02/17 13:13:13;;;;;;;11.95;8.77;;;12.40;99.90;;;;;;5096632;28;25070;-77
2023/02/17 13:15:48;;;;;;;10.00;7.72;;;12.30;99.90;;;;;;5096868;28;25129;-77
2023/02/17 13:18:29;;;;;;;13.38;8.68;;;12.30;99.90;;;;;;5078331;28;25060;-77
2023/02/17 13:21:17;;;;;;;13.38;8.15;;;12.30;99.90;;;;;;5096657;28;25100;-77